Time;durP1;ratioP1;P1;durP2;ratioP2;P2;SDS_P1;SDS_P2;PMS_P1;PMS_P2;Temp;Humidity;BMP_temperature;BMP_pressure;BME280_temperature;BME280_humidity;BME280_pressure;Samples;Min_cycle;Max_cycle;Signal;HPM_P1;HPM_P2
2023/03/21 00:01:14;;;;;;;;;;;16.80;66.30;;;;;;10169053;28;95382;-69
2023/03/21 00:06:16;;;;;;;;;;;16.80;66.60;;;;;;10151645;28;93885;-69
2023/03/21 00:11:18;;;;;;;;;;;16.80;66.70;;;;;;10149706;28;93287;-69
2023/03/21 00:16:19;;;;;;;;;;;16.80;66.70;;;;;;10150371;28;93800;-69
2023/03/21 00:21:31;;;;;;;;;;;16.80;66.70;;;;;;10165136;28;96817;-69
2023/03/21 00:26:52;;;;;;;;;;;16.80;66.70;;;;;;10167281;28;93205;-69
2023/03/21 00:31:54;;;;;;;;;;;16.80;66.60;;;;;;10167362;28;94176;-68
2023/03/21 00:36:56;;;;;;;;;;;16.80;66.60;;;;;;10166867;28;94644;-69
2023/03/21 00:41:58;;;;;;;;;;;16.80;66.50;;;;;;10166446;28;94902;-69
2023/03/21 00:47:01;;;;;;;;;;;16.80;66.50;;;;;;10165593;28;93414;-69
2023/03/21 00:52:09;;;;;;;;;;;16.80;66.50;;;;;;10166468;28;92612;-69
2023/03/21 00:57:31;;;;;;;;;;;16.80;66.50;;;;;;10167147;28;94055;-69
2023/03/21 01:02:54;;;;;;;;;;;16.80;66.50;;;;;;10166727;28;94066;-69
2023/03/21 01:08:07;;;;;;;;;;;16.80;66.50;;;;;;10164910;28;93676;-70
2023/03/21 01:13:27;;;;;;;;;;;16.80;66.50;;;;;;10148239;28;96406;-69
2023/03/21 01:18:29;;;;;;;;;;;16.80;66.50;;;;;;10165062;28;93569;-69
2023/03/21 01:23:30;;;;;;;;;;;16.80;66.40;;;;;;10148166;28;93356;-69
2023/03/21 01:28:33;;;;;;;;;;;16.80;66.40;;;;;;10169592;28;92877;-69
2023/03/21 01:33:35;;;;;;;;;;;16.70;66.40;;;;;;10172386;28;92548;-69
2023/03/21 01:38:36;;;;;;;;;;;16.70;66.40;;;;;;10171569;28;94520;-70
2023/03/21 01:43:39;;;;;;;;;;;16.70;66.40;;;;;;10172161;28;94319;-69
2023/03/21 01:48:42;;;;;;;;;;;16.80;66.30;;;;;;10154708;28;93769;-69
2023/03/21 01:53:46;;;;;;;;;;;16.70;66.40;;;;;;10155296;28;93652;-70
2023/03/21 01:58:48;;;;;;;;;;;16.70;66.30;;;;;;10170991;28;93307;-70
2023/03/21 02:03:50;;;;;;;;;;;16.70;66.30;;;;;;10169910;28;96819;-69
2023/03/21 02:08:52;;;;;;;;;;;16.70;67.40;;;;;;10171039;28;93802;-70
2023/03/21 02:13:54;;;;;;;;;;;16.70;66.40;;;;;;10154229;28;92921;-69
2023/03/21 02:19:22;;;;;;;;;;;16.70;66.30;;;;;;10170990;28;94473;-69
2023/03/21 02:24:53;;;;;;;;;;;16.70;66.30;;;;;;10170409;28;92790;-69
2023/03/21 02:30:23;;;;;;;;;;;16.70;66.30;;;;;;10169960;28;92648;-70
2023/03/21 02:35:48;;;;;;;;;;;16.60;66.30;;;;;;10169603;28;93509;-69
2023/03/21 02:41:02;;;;;;;;;;;16.60;66.30;;;;;;10171104;28;92907;-69
2023/03/21 02:46:16;;;;;;;;;;;16.60;66.30;;;;;;10170243;28;93852;-70
2023/03/21 02:51:20;;;;;;;;;;;16.60;66.30;;;;;;10152261;28;94618;-69
2023/03/21 02:56:23;;;;;;;;;;;16.60;66.30;;;;;;10166958;28;96162;-69
2023/03/21 03:01:25;;;;;;;;;;;16.60;66.30;;;;;;10170639;28;94369;-69
2023/03/21 03:06:32;;;;;;;;;;;16.60;66.30;;;;;;10170328;28;96029;-69
2023/03/21 03:11:38;;;;;;;;;;;16.60;66.30;;;;;;10170005;28;93409;-69
2023/03/21 03:16:40;;;;;;;;;;;16.60;66.30;;;;;;10171763;28;93289;-69
2023/03/21 03:22:00;;;;;;;;;;;16.60;66.30;;;;;;10152712;28;93506;-70
2023/03/21 03:27:07;;;;;;;;;;;16.60;66.30;;;;;;10168778;28;93778;-69
2023/03/21 03:32:12;;;;;;;;;;;16.60;66.30;;;;;;10168939;28;93864;-70
2023/03/21 03:37:19;;;;;;;;;;;16.60;66.30;;;;;;10151182;28;93526;-69
2023/03/21 03:42:23;;;;;;;;;;;16.60;66.30;;;;;;10168607;28;94492;-69
2023/03/21 03:47:36;;;;;;;;;;;16.60;66.30;;;;;;10148318;28;97133;-69
2023/03/21 03:52:58;;;;;;;;;;;16.60;66.30;;;;;;10167977;28;94714;-69
2023/03/21 03:58:03;;;;;;;;;;;16.60;66.20;;;;;;10167665;28;93975;-70
2023/03/21 04:03:11;;;;;;;;;;;16.60;66.20;;;;;;10167934;28;93271;-69
2023/03/21 04:08:14;;;;;;;;;;;16.60;66.30;;;;;;10149865;28;94110;-69
2023/03/21 04:13:16;;;;;;;;;;;16.60;66.20;;;;;;10167854;28;93501;-69
2023/03/21 04:18:17;;;;;;;;;;;16.60;66.20;;;;;;10167475;28;93927;-69
2023/03/21 04:23:19;;;;;;;;;;;16.60;66.20;;;;;;10169075;28;93451;-69
2023/03/21 04:28:21;;;;;;;;;;;16.60;66.20;;;;;;10166930;28;94463;-70
2023/03/21 04:33:31;;;;;;;;;;;16.60;66.20;;;;;;10166333;28;93440;-70
2023/03/21 04:38:33;;;;;;;;;;;16.60;66.20;;;;;;10163161;28;95452;-69
2023/03/21 04:43:35;;;;;;;;;;;16.60;66.20;;;;;;10165649;28;93406;-70
2023/03/21 06:07:24;;;;;;;;;;;16.80;65.70;;;;;;10090141;28;93067;-72
2023/03/21 06:12:26;;;;;;;;;;;16.90;65.50;;;;;;10074999;28;93776;-70
2023/03/21 06:17:27;;;;;;;;;;;16.90;65.40;;;;;;10092824;28;93279;-71
2023/03/21 06:22:30;;;;;;;;;;;16.90;65.40;;;;;;10092011;28;93732;-69
2023/03/21 06:27:32;;;;;;;;;;;16.90;65.40;;;;;;10091547;28;94840;-69
2023/03/21 06:32:33;;;;;;;;;;;16.90;65.40;;;;;;10092237;28;94691;-67
2023/03/21 06:37:35;;;;;;;;;;;16.90;66.00;;;;;;10088932;28;95600;-68
2023/03/21 06:42:37;;;;;;;;;;;16.90;67.40;;;;;;10090889;28;93702;-67
2023/03/21 06:47:38;;;;;;;;;;;16.90;67.20;;;;;;10094739;28;94143;-67
2023/03/21 06:52:40;;;;;;;;;;;16.90;67.40;;;;;;10101891;28;93868;-71
2023/03/21 06:57:42;;;;;;;;;;;16.90;67.30;;;;;;10113082;28;93644;-71
2023/03/21 07:02:45;;;;;;;;;;;16.90;67.10;;;;;;10129865;28;94203;-76
2023/03/21 07:07:47;;;;;;;;;;;16.80;67.20;;;;;;10112012;28;93453;-71
2023/03/21 07:12:49;;;;;;;;;;;16.80;68.20;;;;;;10129884;28;93666;-72
2023/03/21 07:17:51;;;;;;;;;;;16.90;68.60;;;;;;10113884;28;93196;-70
2023/03/21 07:22:52;;;;;;;;;;;16.90;68.40;;;;;;10113362;28;93334;-72
2023/03/21 07:27:55;;;;;;;;;;;16.90;68.60;;;;;;10117576;28;96572;-72
2023/03/21 07:32:56;;;;;;;;;;;16.90;68.10;;;;;;10152943;28;93181;-70
2023/03/21 07:37:58;;;;;;;;;;;16.90;68.00;;;;;;10150704;28;92991;-72
2023/03/21 07:43:00;;;;;;;;;;;16.90;68.20;;;;;;10168986;28;94452;-73
2023/03/21 07:48:02;;;;;;;;;;;16.90;68.70;;;;;;10166885;28;93288;-76
2023/03/21 07:53:04;;;;;;;;;;;16.90;69.10;;;;;;10169351;28;94050;-71
2023/03/21 07:58:06;;;;;;;;;;;16.90;71.30;;;;;;10168057;28;93244;-71
2023/03/21 08:03:08;;;;;;;;;;;16.90;71.70;;;;;;10167895;28;92441;-71
2023/03/21 08:08:10;;;;;;;;;;;16.90;71.00;;;;;;10168138;28;93655;-71
2023/03/21 08:13:11;;;;;;;;;;;16.90;70.90;;;;;;10167850;28;93155;-71
2023/03/21 08:18:13;;;;;;;;;;;16.80;70.80;;;;;;10158084;28;96875;-68
2023/03/21 08:23:15;;;;;;;;;;;16.80;71.60;;;;;;10130567;28;94374;-68
2023/03/21 08:28:17;;;;;;;;;;;16.80;70.90;;;;;;10136428;28;93313;-70
2023/03/21 08:33:19;;;;;;;;;;;16.80;70.80;;;;;;10158148;28;95698;-70
2023/03/21 08:38:21;;;;;;;;;;;16.80;70.90;;;;;;10162513;28;94529;-70
2023/03/21 08:43:22;;;;;;;;;;;16.70;70.70;;;;;;10163809;28;94653;-70
2023/03/21 08:48:24;;;;;;;;;;;16.70;70.60;;;;;;10163059;28;93517;-70
2023/03/21 08:53:26;;;;;;;;;;;16.70;70.50;;;;;;10167790;28;96593;-70
2023/03/21 08:58:27;;;;;;;;;;;16.70;70.40;;;;;;10166771;28;94541;-70
2023/03/21 09:03:29;;;;;;;;;;;16.60;70.70;;;;;;10148604;28;94095;-70
2023/03/21 09:08:31;;;;;;;;;;;16.60;70.20;;;;;;10162705;28;96095;-71
2023/03/21 09:13:32;;;;;;;;;;;16.60;70.20;;;;;;10165907;28;94552;-71
2023/03/21 09:18:48;;;;;;;;;;;16.60;70.00;;;;;;10165332;28;94397;-67
2023/03/21 09:23:51;;;;;;;;;;;16.60;70.00;;;;;;10149172;28;94416;-67
2023/03/21 09:28:54;;;;;;;;;;;16.60;69.90;;;;;;10165179;28;93469;-68
2023/03/21 09:33:56;;;;;;;;;;;16.60;69.90;;;;;;10164653;28;93681;-68
2023/03/21 09:38:57;;;;;;;;;;;16.50;69.80;;;;;;10165953;28;92600;-68
2023/03/21 09:44:23;;;;;;;;;;;16.50;69.80;;;;;;10166280;28;92781;-67
2023/03/21 09:49:29;;;;;;;;;;;16.50;69.70;;;;;;10169987;28;94421;-67
2023/03/21 09:54:36;;;;;;;;;;;16.50;69.70;;;;;;10171628;28;94493;-68
2023/03/21 09:59:41;;;;;;;;;;;16.50;69.70;;;;;;10168533;28;96359;-67
2023/03/21 10:04:45;;;;;;;;;;;16.50;69.50;;;;;;10172347;28;95032;-69
2023/03/21 10:09:47;;;;;;;;;;;16.50;69.50;;;;;;10170826;28;94447;-69
2023/03/21 10:14:50;;;;;;;;;;;16.50;69.50;;;;;;10172295;28;94534;-69
2023/03/21 10:20:13;;;;;;;;;;;16.50;69.50;;;;;;10170098;28;93958;-69
2023/03/21 10:25:17;;;;;;;;;;;16.50;69.40;;;;;;10171070;28;93523;-69
2023/03/21 10:30:28;;;;;;;;;;;16.50;69.30;;;;;;10170004;28;94085;-69
2023/03/21 10:35:33;;;;;;;;;;;16.50;69.30;;;;;;10154932;28;93676;-68
2023/03/21 10:40:34;;;;;;;;;;;16.50;69.20;;;;;;10153955;28;93450;-69
2023/03/21 10:45:36;;;;;;;;;;;16.50;69.10;;;;;;10169583;28;93458;-68
2023/03/21 10:50:39;;;;;;;;;;;16.50;69.10;;;;;;10166678;28;97061;-69
2023/03/21 10:55:41;;;;;;;;;;;16.50;69.10;;;;;;10169760;28;93540;-69
2023/03/21 11:00:44;;;;;;;;;;;16.50;69.10;;;;;;10168972;28;93247;-69
2023/03/21 11:05:47;;;;;;;;;;;16.50;68.90;;;;;;10136684;28;93593;-68
2023/03/21 11:10:51;;;;;;;;;;;16.50;68.90;;;;;;10152507;28;93419;-69
2023/03/21 11:15:54;;;;;;;;;;;16.50;68.90;;;;;;10169398;28;93564;-69
2023/03/21 11:20:57;;;;;;;;;;;16.50;68.90;;;;;;10168856;28;93479;-69
2023/03/21 11:25:59;;;;;;;;;;;16.50;68.80;;;;;;10169601;28;92243;-69
2023/03/21 11:31:02;;;;;;;;;;;16.60;68.80;;;;;;10169363;28;93202;-69
2023/03/21 11:36:06;;;;;;;;;;;16.60;68.70;;;;;;10167207;28;93487;-68
2023/03/21 11:41:08;;;;;;;;;;;16.60;68.60;;;;;;10165987;28;95974;-69
2023/03/21 11:46:12;;;;;;;;;;;16.60;68.70;;;;;;10169399;28;93028;-69
2023/03/21 11:51:14;;;;;;;;;;;16.50;68.60;;;;;;10168741;28;93650;-69
2023/03/21 11:56:37;;;;;;;;;;;16.50;68.70;;;;;;10167338;28;93229;-68
2023/03/21 12:01:38;;;;;;;;;;;16.50;68.60;;;;;;10167268;28;93279;-68
2023/03/21 12:06:45;;;;;;;;;;;16.50;68.50;;;;;;10167710;28;93863;-70
2023/03/21 12:12:02;;;;;;;;;;;16.50;68.50;;;;;;10166984;28;94498;-68
2023/03/21 12:17:09;;;;;;;;;;;16.50;68.50;;;;;;10167796;28;92583;-69
2023/03/21 12:22:10;;;;;;;;;;;16.50;68.40;;;;;;10167031;28;93602;-69
2023/03/21 12:27:21;;;;;;;;;;;16.50;68.40;;;;;;10167242;28;93417;-68
2023/03/21 12:32:37;;;;;;;;;;;16.50;68.40;;;;;;10164600;28;99354;-68
2023/03/21 12:37:51;;;;;;;;;;;16.60;68.50;;;;;;10166469;28;92671;-69
2023/03/21 12:43:13;;;;;;;;;;;16.60;68.40;;;;;;10166072;28;93395;-69
2023/03/21 12:48:15;;;;;;;;;;;16.50;68.30;;;;;;10165242;28;94014;-68
2023/03/21 12:53:20;;;;;;;;;;;16.50;68.30;;;;;;10166662;28;93475;-68
2023/03/21 12:58:23;;;;;;;;;;;16.50;68.30;;;;;;10166231;28;94504;-69
2023/03/21 13:03:34;;;;;;;;;;;16.50;68.30;;;;;;10165564;28;93718;-69
2023/03/21 13:08:53;;;;;;;;;;;16.50;68.30;;;;;;10150308;28;93699;-69
2023/03/21 13:14:04;;;;;;;;;;;16.50;68.40;;;;;;10165889;28;93365;-69
2023/03/21 13:19:17;;;;;;;;;;;16.50;68.40;;;;;;10148103;28;93450;-69
2023/03/21 13:24:32;;;;;;;;;;;16.60;68.40;;;;;;10170116;28;95788;-69
2023/03/21 13:29:43;;;;;;;;;;;16.60;68.30;;;;;;10174015;28;94494;-67
2023/03/21 13:34:52;;;;;;;;;;;16.60;68.30;;;;;;10172809;28;94472;-68
2023/03/21 13:39:58;;;;;;;;;;;16.60;68.30;;;;;;10173285;28;93440;-68
2023/03/21 13:45:04;;;;;;;;;;;16.60;68.20;;;;;;10173970;28;94097;-69
2023/03/21 13:50:21;;;;;;;;;;;16.60;68.20;;;;;;10172171;28;93484;-68
2023/03/21 13:55:26;;;;;;;;;;;16.60;68.10;;;;;;10154111;28;94787;-68
2023/03/21 14:00:29;;;;;;;;;;;16.60;67.90;;;;;;10172525;28;92451;-69
2023/03/21 14:05:32;;;;;;;;;;;16.60;67.90;;;;;;10171132;28;93548;-69
2023/03/21 14:10:35;;;;;;;;;;;16.60;67.90;;;;;;10170838;28;93506;-68
2023/03/21 14:15:45;;;;;;;;;;;16.60;68.00;;;;;;10168490;28;95702;-69
2023/03/21 14:20:57;;;;;;;;;;;16.50;67.70;;;;;;10170991;28;93720;-69
2023/03/21 14:25:59;;;;;;;;;;;16.60;67.90;;;;;;10170468;28;94492;-69
2023/03/21 14:31:01;;;;;;;;;;;16.60;67.90;;;;;;10170118;28;94191;-69
2023/03/21 14:36:05;;;;;;;;;;;16.50;67.60;;;;;;10152631;28;93679;-69
2023/03/21 14:41:24;;;;;;;;;;;16.50;67.70;;;;;;10169828;28;93564;-69
2023/03/21 14:46:26;;;;;;;;;;;16.50;67.80;;;;;;10169969;28;93483;-69
2023/03/21 14:51:28;;;;;;;;;;;16.50;67.70;;;;;;10170339;28;92783;-69
2023/03/21 14:56:29;;;;;;;;;;;16.50;67.80;;;;;;10153879;28;93700;-69
2023/03/21 15:01:33;;;;;;;;;;;16.50;67.70;;;;;;10136906;28;94523;-68
2023/03/21 15:06:47;;;;;;;;;;;16.50;67.70;;;;;;10165955;28;95824;-69
2023/03/21 15:11:50;;;;;;;;;;;16.50;67.50;;;;;;10169101;28;95834;-69
2023/03/21 15:16:53;;;;;;;;;;;16.50;67.60;;;;;;10168633;28;94413;-70
2023/03/21 15:21:58;;;;;;;;;;;16.50;67.60;;;;;;10168776;28;93347;-69
2023/03/21 15:27:02;;;;;;;;;;;16.50;67.70;;;;;;10168599;28;94640;-69
2023/03/21 15:32:06;;;;;;;;;;;16.50;67.60;;;;;;10152254;28;94970;-69
2023/03/21 15:37:13;;;;;;;;;;;16.50;67.70;;;;;;10151292;28;93655;-69
2023/03/21 15:42:29;;;;;;;;;;;16.50;67.70;;;;;;10168879;28;92445;-69
2023/03/21 15:48:03;;;;;;;;;;;16.50;67.80;;;;;;10166782;28;94546;-69
2023/03/21 15:53:06;;;;;;;;;;;16.40;67.80;;;;;;10115438;28;95098;-69
2023/03/21 15:58:12;;;;;;;;;;;16.40;67.60;;;;;;10164851;28;95867;-68
2023/03/21 16:03:17;;;;;;;;;;;16.40;67.60;;;;;;10169429;28;93250;-69
2023/03/21 16:08:26;;;;;;;;;;;16.40;67.80;;;;;;10173545;28;93079;-69
2023/03/21 16:13:27;;;;;;;;;;;16.40;67.70;;;;;;10138426;28;93433;-69
2023/03/21 16:18:30;;;;;;;;;;;16.40;67.70;;;;;;10168913;28;93844;-68
2023/03/21 16:23:32;;;;;;;;;;;16.40;67.70;;;;;;10168280;28;94557;-68
2023/03/21 16:28:34;;;;;;;;;;;16.40;67.60;;;;;;10149444;28;92959;-68
2023/03/21 16:33:36;;;;;;;;;;;16.40;67.60;;;;;;10167741;28;94090;-68
2023/03/21 16:38:37;;;;;;;;;;;16.40;67.70;;;;;;10166917;28;93582;-69
2023/03/21 16:43:42;;;;;;;;;;;16.40;67.60;;;;;;10166208;28;94667;-69
2023/03/21 16:48:45;;;;;;;;;;;16.40;67.60;;;;;;10131484;28;96879;-70
2023/03/21 16:53:47;;;;;;;;;;;16.40;67.60;;;;;;10165522;28;93651;-69
2023/03/21 16:58:49;;;;;;;;;;;16.30;67.50;;;;;;10172290;28;93850;-69
2023/03/21 17:03:51;;;;;;;;;;;16.40;67.60;;;;;;10173098;28;93528;-69
2023/03/21 17:08:54;;;;;;;;;;;16.30;67.50;;;;;;10173150;28;93980;-69
2023/03/21 17:13:55;;;;;;;;;;;16.40;67.60;;;;;;10172695;28;94299;-69
2023/03/21 17:18:57;;;;;;;;;;;16.40;67.80;;;;;;10155320;28;93451;-69
2023/03/21 17:23:59;;;;;;;;;;;16.50;67.80;;;;;;10173279;28;92508;-69
2023/03/21 17:29:01;;;;;;;;;;;16.70;67.40;;;;;;10154961;28;93817;-69
2023/03/21 17:34:03;;;;;;;;;;;16.90;67.20;;;;;;10170957;28;93475;-69
2023/03/21 17:39:07;;;;;;;;;;;17.00;66.70;;;;;;10169610;28;95316;-69
2023/03/21 17:44:09;;;;;;;;;;;17.10;66.50;;;;;;10171719;28;93835;-69
2023/03/21 17:49:14;;;;;;;;;;;17.30;66.30;;;;;;10171574;28;93471;-69
2023/03/21 17:54:16;;;;;;;;;;;17.40;65.90;;;;;;10171454;28;93379;-70
2023/03/21 17:59:18;;;;;;;;;;;17.50;65.70;;;;;;10174199;28;93854;-69
2023/03/21 18:04:20;;;;;;;;;;;17.50;65.60;;;;;;10139112;28;96333;-70
2023/03/21 18:09:22;;;;;;;;;;;17.50;65.60;;;;;;10169608;28;93476;-69
2023/03/21 18:14:24;;;;;;;;;;;17.50;65.60;;;;;;10171752;28;92741;-70
2023/03/21 18:19:30;;;;;;;;;;;17.40;65.60;;;;;;10170804;28;94477;-70
2023/03/21 18:24:31;;;;;;;;;;;17.40;65.80;;;;;;10171866;28;94568;-70
2023/03/21 18:29:35;;;;;;;;;;;17.40;65.70;;;;;;10150905;28;96864;-69
2023/03/21 18:34:59;;;;;;;;;;;17.40;65.70;;;;;;10170678;28;94038;-69
2023/03/21 18:40:02;;;;;;;;;;;17.40;65.70;;;;;;10170252;28;93552;-69
2023/03/21 18:45:05;;;;;;;;;;;17.40;65.70;;;;;;10170531;28;94818;-69
2023/03/21 18:50:10;;;;;;;;;;;17.40;65.90;;;;;;10170161;28;94594;-69
2023/03/21 18:55:15;;;;;;;;;;;17.40;65.90;;;;;;10170844;28;94114;-69
2023/03/21 19:00:21;;;;;;;;;;;17.40;65.80;;;;;;10170534;28;93331;-70
2023/03/21 19:05:23;;;;;;;;;;;17.40;65.80;;;;;;10152521;28;92881;-69
2023/03/21 19:10:25;;;;;;;;;;;17.30;65.80;;;;;;10168374;28;94263;-70
2023/03/21 19:15:27;;;;;;;;;;;17.30;66.00;;;;;;10152036;28;94003;-70
2023/03/21 19:20:29;;;;;;;;;;;17.30;65.90;;;;;;10167081;28;99502;-69
2023/03/21 19:25:30;;;;;;;;;;;17.40;65.90;;;;;;10169863;28;94797;-69
2023/03/21 19:30:33;;;;;;;;;;;17.40;65.90;;;;;;10169426;28;94732;-68
2023/03/21 19:35:38;;;;;;;;;;;17.30;65.90;;;;;;10150573;28;93480;-68
2023/03/21 19:40:43;;;;;;;;;;;17.30;66.20;;;;;;10169118;28;113997;-72
2023/03/21 19:45:46;;;;;;;;;;;17.40;66.90;;;;;;10152868;28;94043;-67
2023/03/21 19:50:48;;;;;;;;;;;17.50;67.70;;;;;;10168897;28;94562;-69
2023/03/21 19:56:12;;;;;;;;;;;17.50;67.30;;;;;;10153826;28;92334;-66
2023/03/21 20:01:23;;;;;;;;;;;17.60;66.60;;;;;;10166726;28;93721;-71
2023/03/21 20:06:26;;;;;;;;;;;17.60;66.70;;;;;;10166270;28;94662;-73
2023/03/21 20:11:27;;;;;;;;;;;17.70;66.50;;;;;;10164369;28;95954;-72
2023/03/21 20:16:31;;;;;;;;;;;17.70;66.40;;;;;;10166365;28;93922;-72
2023/03/21 20:21:36;;;;;;;;;;;17.70;66.40;;;;;;10166884;28;94491;-72
2023/03/21 20:26:53;;;;;;;;;;;17.70;66.40;;;;;;10166259;28;94008;-72
2023/03/21 20:31:55;;;;;;;;;;;17.60;66.40;;;;;;10164583;28;93468;-71
2023/03/21 20:36:57;;;;;;;;;;;17.60;66.50;;;;;;10166467;28;93654;-70
2023/03/21 20:41:59;;;;;;;;;;;17.60;66.50;;;;;;10164743;28;93931;-70
2023/03/21 20:47:04;;;;;;;;;;;17.60;66.60;;;;;;10167876;28;91956;-70
2023/03/21 20:52:06;;;;;;;;;;;17.60;66.50;;;;;;10166802;28;94584;-71
2023/03/21 20:57:27;;;;;;;;;;;17.50;66.60;;;;;;10166186;28;93165;-71
2023/03/21 21:02:29;;;;;;;;;;;17.50;66.60;;;;;;10161994;28;95658;-71
2023/03/21 21:07:31;;;;;;;;;;;17.50;66.80;;;;;;10166752;28;95804;-71
2023/03/21 21:12:33;;;;;;;;;;;17.50;66.80;;;;;;10165340;28;93451;-72
2023/03/21 21:17:35;;;;;;;;;;;17.40;66.80;;;;;;10164890;28;94361;-71
2023/03/21 21:22:57;;;;;;;;;;;17.40;66.90;;;;;;10165015;28;92928;-70
2023/03/21 21:28:01;;;;;;;;;;;17.40;67.00;;;;;;10165963;28;93775;-70
2023/03/21 21:33:04;;;;;;;;;;;17.30;67.10;;;;;;10164303;28;93925;-71
2023/03/21 21:38:06;;;;;;;;;;;17.30;67.20;;;;;;10148309;28;92880;-69
2023/03/21 21:43:08;;;;;;;;;;;17.30;67.30;;;;;;10169200;28;94347;-70
2023/03/21 21:48:10;;;;;;;;;;;17.30;67.40;;;;;;10171964;28;93657;-70
2023/03/21 21:53:12;;;;;;;;;;;17.30;67.60;;;;;;10152473;28;94945;-70
2023/03/21 21:58:17;;;;;;;;;;;17.30;67.70;;;;;;10171715;28;93440;-70
2023/03/21 22:03:20;;;;;;;;;;;17.20;67.60;;;;;;10154216;28;93324;-71
2023/03/21 22:08:22;;;;;;;;;;;17.20;67.60;;;;;;10170495;28;92798;-70
2023/03/21 22:13:24;;;;;;;;;;;17.20;67.60;;;;;;10153581;28;92635;-71
2023/03/21 22:18:26;;;;;;;;;;;17.20;67.80;;;;;;10154249;28;94681;-70
2023/03/21 22:23:28;;;;;;;;;;;17.20;67.90;;;;;;10153299;28;93249;-71
2023/03/21 22:28:29;;;;;;;;;;;17.10;68.00;;;;;;10170222;28;93238;-71
2023/03/21 22:33:32;;;;;;;;;;;17.10;68.00;;;;;;10169694;28;93539;-71
2023/03/21 22:38:35;;;;;;;;;;;17.10;68.10;;;;;;10169663;28;94655;-71
2023/03/21 22:43:37;;;;;;;;;;;17.10;68.00;;;;;;10168078;28;96770;-70
2023/03/21 22:48:40;;;;;;;;;;;17.10;68.10;;;;;;10168297;28;94218;-71
2023/03/21 22:53:42;;;;;;;;;;;17.10;68.00;;;;;;10168623;28;93543;-71
2023/03/21 22:58:43;;;;;;;;;;;17.10;68.00;;;;;;10168630;28;93116;-70
2023/03/21 23:03:45;;;;;;;;;;;17.00;68.00;;;;;;10168616;28;94763;-71
2023/03/21 23:08:46;;;;;;;;;;;17.00;67.80;;;;;;10167860;28;94552;-71
2023/03/21 23:13:53;;;;;;;;;;;17.00;67.90;;;;;;10151882;28;93212;-71
2023/03/21 23:19:09;;;;;;;;;;;17.00;67.80;;;;;;10154665;28;92713;-71
2023/03/21 23:24:11;;;;;;;;;;;17.00;67.70;;;;;;10169194;28;93964;-71
2023/03/21 23:29:13;;;;;;;;;;;16.90;67.60;;;;;;10169325;28;93645;-71
2023/03/21 23:34:15;;;;;;;;;;;16.90;67.60;;;;;;10166267;28;96596;-70
2023/03/21 23:39:17;;;;;;;;;;;16.90;67.60;;;;;;10168150;28;94090;-70
2023/03/21 23:44:19;;;;;;;;;;;16.80;67.50;;;;;;10167711;28;93661;-71
2023/03/21 23:49:21;;;;;;;;;;;16.80;67.50;;;;;;10168044;28;94625;-71
2023/03/21 23:54:22;;;;;;;;;;;16.80;67.50;;;;;;10167345;28;93401;-70
2023/03/21 23:59:24;;;;;;;;;;;16.80;67.40;;;;;;10166787;28;94463;-71
